createdAt,value
2019-04-19T00:00:42.445Z,1004.06
2019-04-19T00:01:50.788Z,1004.09
2019-04-19T00:02:45.024Z,1004.13
2019-04-19T00:03:42.460Z,1004.13
2019-04-19T00:04:48.462Z,1004.14
2019-04-19T00:05:45.286Z,1004.14
2019-04-19T00:06:43.362Z,1004.13
2019-04-19T00:07:46.859Z,1004.13
2019-04-19T00:09:00.099Z,1004.16
2019-04-19T00:09:53.250Z,1004.13
2019-04-19T00:10:51.160Z,1004.13
2019-04-19T00:11:47.219Z,1004.11
2019-04-19T00:12:48.714Z,1004.09
2019-04-19T00:13:42.978Z,1004.10
2019-04-19T00:14:42.473Z,1004.14
2019-04-19T00:15:43.605Z,1004.08
2019-04-19T00:16:42.832Z,1004.05
2019-04-19T00:17:43.868Z,1004.08
2019-04-19T00:18:51.240Z,1004.09
2019-04-19T00:20:05.518Z,1004.05
2019-04-19T00:21:03.030Z,1004.09
2019-04-19T00:22:10.348Z,1004.07
2019-04-19T00:22:58.201Z,1004.06
2019-04-19T00:23:46.780Z,1004.09
2019-04-19T00:24:43.782Z,1004.07
2019-04-19T00:25:43.470Z,1004.07
2019-04-19T00:26:44.382Z,1004.10
2019-04-19T00:27:49.672Z,1004.08
2019-04-19T00:28:50.549Z,1004.08
2019-04-19T00:29:52.730Z,1004.07
2019-04-19T00:30:54.683Z,1004.03
2019-04-19T00:32:00.380Z,1004.05
2019-04-19T00:33:00.249Z,1003.99
2019-04-19T00:33:48.350Z,1004.00
2019-04-19T00:34:44.419Z,1004.02
2019-04-19T00:35:45.382Z,1003.99
2019-04-19T00:36:44.797Z,1003.97
2019-04-19T00:37:44.898Z,1003.97
2019-04-19T00:38:57.429Z,1004.02
2019-04-19T00:40:04.743Z,1003.98
2019-04-19T00:41:05.116Z,1003.99
2019-04-19T00:42:04.930Z,1003.97
2019-04-19T00:42:56.941Z,1004.01
2019-04-19T00:43:58.815Z,1004.02
2019-04-19T00:45:04.802Z,1003.91
2019-04-19T00:46:05.836Z,1004.02
2019-04-19T00:47:10.434Z,1004.01
2019-04-19T00:48:00.764Z,1004.03
2019-04-19T00:48:59.884Z,1004.05
2019-04-19T00:50:00.254Z,1004.02
2019-04-19T00:50:59.791Z,1004.05
2019-04-19T00:52:00.198Z,1004.06
2019-04-19T00:53:05.699Z,1004.05
2019-04-19T00:53:57.473Z,1004.04
2019-04-19T00:54:56.721Z,1004.04
2019-04-19T00:55:58.818Z,1004.08
2019-04-19T00:56:54.968Z,1004.01
2019-04-19T00:57:53.306Z,1004.06
2019-04-19T00:58:53.288Z,1004.04
2019-04-19T00:59:49.001Z,1004.03
2019-04-19T01:00:46.661Z,1004.02
2019-04-19T01:01:53.703Z,1004.02
2019-04-19T01:02:51.794Z,1004.02
2019-04-19T01:03:50.237Z,1004.01
2019-04-19T01:04:49.276Z,1004.05
2019-04-19T01:05:54.962Z,1004.03
2019-04-19T01:06:54.769Z,1004.03
2019-04-19T01:07:47.521Z,1004.05
2019-04-19T01:08:55.152Z,1004.03
2019-04-19T01:10:08.545Z,1004.06
2019-04-19T01:11:06.189Z,1004.03
2019-04-19T01:12:03.125Z,1004.06
2019-04-19T01:13:03.264Z,1004.04
2019-04-19T01:14:01.446Z,1004.08
2019-04-19T01:15:04.558Z,1004.02
2019-04-19T01:16:01.411Z,1004.08
2019-04-19T01:17:01.581Z,1004.06
2019-04-19T01:18:08.425Z,1004.09
2019-04-19T01:18:55.847Z,1004.04
2019-04-19T01:19:55.774Z,1004.04
2019-04-19T01:20:48.461Z,1004.08
2019-04-19T01:21:49.083Z,1004.05
2019-04-19T01:22:55.771Z,1004.07
2019-04-19T01:23:54.256Z,1004.04
2019-04-19T01:24:50.135Z,1004.07
2019-04-19T01:25:54.151Z,1004.07
2019-04-19T01:26:53.951Z,1004.06
2019-04-19T01:27:49.086Z,1004.03
2019-04-19T01:28:53.557Z,1004.06
2019-04-19T01:29:54.250Z,1004.09
2019-04-19T01:30:50.723Z,1004.06
2019-04-19T01:31:58.347Z,1004.11
2019-04-19T01:32:54.520Z,1004.10
2019-04-19T01:33:50.712Z,1004.13
2019-04-19T01:34:54.405Z,1004.12
2019-04-19T01:35:52.910Z,1004.08
2019-04-19T01:36:51.237Z,1004.14
2019-04-19T01:37:57.810Z,1004.12
2019-04-19T01:39:04.432Z,1004.12
2019-04-19T01:40:04.342Z,1004.14
2019-04-19T01:41:07.938Z,1004.16
2019-04-19T01:42:00.965Z,1004.15
2019-04-19T01:43:06.056Z,1004.13
2019-04-19T01:44:10.570Z,1004.17
2019-04-19T01:45:04.104Z,1004.12
2019-04-19T01:46:05.605Z,1004.16
2019-04-19T01:47:04.885Z,1004.20
2019-04-19T01:48:07.565Z,1004.16
2019-04-19T01:49:05.249Z,1004.17
2019-04-19T01:50:04.198Z,1004.14
2019-04-19T01:51:12.263Z,1004.15
2019-04-19T01:52:09.859Z,1004.15
2019-04-19T01:53:14.891Z,1004.17
2019-04-19T01:54:12.851Z,1004.16
2019-04-19T01:55:01.854Z,1004.14
2019-04-19T01:55:59.251Z,1004.17
2019-04-19T01:56:57.099Z,1004.14
2019-04-19T01:57:53.966Z,1004.18
2019-04-19T01:58:55.794Z,1004.14
2019-04-19T01:59:55.389Z,1004.14
2019-04-19T02:00:55.469Z,1004.16
2019-04-19T02:02:00.467Z,1004.14
2019-04-19T02:02:56.415Z,1004.14
2019-04-19T02:03:53.739Z,1004.14
2019-04-19T02:05:01.879Z,1004.18
2019-04-19T02:05:56.535Z,1004.13
2019-04-19T02:06:52.989Z,1004.17
2019-04-19T02:07:58.124Z,1004.16
2019-04-19T02:08:56.270Z,1004.17
2019-04-19T02:10:06.498Z,1004.17
2019-04-19T02:11:02.757Z,1004.19
2019-04-19T02:12:03.592Z,1004.17
2019-04-19T02:13:06.143Z,1004.17
2019-04-19T02:14:03.838Z,1004.20
2019-04-19T02:14:59.211Z,1004.18
2019-04-19T02:15:54.845Z,1004.18
2019-04-19T02:16:59.526Z,1004.17
2019-04-19T02:17:54.297Z,1004.17
2019-04-19T02:19:00.635Z,1004.23
2019-04-19T02:20:00.155Z,1004.26
2019-04-19T02:20:54.567Z,1004.29
2019-04-19T02:21:55.461Z,1004.27
2019-04-19T02:23:00.191Z,1004.28
2019-04-19T02:23:58.664Z,1004.29
2019-04-19T02:24:57.252Z,1004.32
2019-04-19T02:25:59.247Z,1004.30
2019-04-19T02:27:01.053Z,1004.36
2019-04-19T02:27:54.582Z,1004.35
2019-04-19T02:28:57.646Z,1004.33
2019-04-19T02:30:02.568Z,1004.38
2019-04-19T02:31:10.507Z,1004.33
2019-04-19T02:32:30.201Z,1004.33
2019-04-19T02:33:20.034Z,1004.38
2019-04-19T02:34:32.120Z,1004.38
2019-04-19T02:35:15.628Z,1004.38
2019-04-19T02:36:25.341Z,1004.35
2019-04-19T02:37:18.467Z,1004.38
2019-04-19T02:38:22.765Z,1004.35
2019-04-19T02:40:39.608Z,1004.40
2019-04-19T02:41:30.067Z,1004.42
2019-04-19T02:43:27.671Z,1004.44
2019-04-19T02:44:17.828Z,1004.46
2019-04-19T02:45:17.603Z,1004.43
2019-04-19T02:46:34.902Z,1004.45
2019-04-19T02:47:34.350Z,1004.50
2019-04-19T02:48:31.166Z,1004.49
2019-04-19T02:49:28.278Z,1004.50
2019-04-19T02:50:39.099Z,1004.49
2019-04-19T02:51:25.927Z,1004.50
2019-04-19T02:52:29.163Z,1004.49
2019-04-19T02:53:26.324Z,1004.50
2019-04-19T02:54:25.526Z,1004.50
2019-04-19T02:55:35.513Z,1004.53
2019-04-19T02:56:36.124Z,1004.57
2019-04-19T02:58:17.009Z,1004.60
2019-04-19T02:59:30.302Z,1004.57
2019-04-19T03:00:32.517Z,1004.56
2019-04-19T03:01:28.085Z,1004.56
2019-04-19T03:02:31.458Z,1004.55
2019-04-19T03:03:50.122Z,1004.58
2019-04-19T03:05:18.751Z,1004.57
2019-04-19T03:06:13.322Z,1004.56
2019-04-19T03:07:01.099Z,1004.54
2019-04-19T03:07:57.989Z,1004.58
2019-04-19T03:08:58.605Z,1004.58
2019-04-19T03:09:58.181Z,1004.57
2019-04-19T03:11:09.284Z,1004.58
2019-04-19T03:12:12.565Z,1004.59
2019-04-19T03:13:12.785Z,1004.56
2019-04-19T03:14:11.907Z,1004.62
2019-04-19T03:15:13.841Z,1004.62
2019-04-19T03:16:22.293Z,1004.56
2019-04-19T03:17:17.611Z,1004.61
2019-04-19T03:18:27.691Z,1004.62
2019-04-19T03:19:09.650Z,1004.63
2019-04-19T03:20:18.037Z,1004.67
2019-04-19T03:21:18.930Z,1004.64
2019-04-19T03:22:16.125Z,1004.64
2019-04-19T03:23:14.904Z,1004.65
2019-04-19T03:24:11.203Z,1004.71
2019-04-19T03:25:15.684Z,1004.68
2019-04-19T03:26:16.568Z,1004.67
2019-04-19T03:27:09.993Z,1004.71
2019-04-19T03:28:11.015Z,1004.69
2019-04-19T03:29:08.820Z,1004.70
2019-04-19T03:30:11.007Z,1004.69
2019-04-19T03:31:23.176Z,1004.71
2019-04-19T03:33:41.969Z,1004.74
2019-04-19T03:34:31.112Z,1004.68
2019-04-19T03:35:12.641Z,1004.67
2019-04-19T03:36:33.724Z,1004.67
2019-04-19T03:37:21.597Z,1004.69
2019-04-19T03:38:15.744Z,1004.72
2019-04-19T03:39:24.802Z,1004.72
2019-04-19T03:41:38.867Z,1004.72
2019-04-19T03:42:21.569Z,1004.72
2019-04-19T03:43:25.781Z,1004.75
2019-04-19T03:44:15.949Z,1004.71
2019-04-19T03:45:19.190Z,1004.71
2019-04-19T03:46:16.994Z,1004.73
2019-04-19T03:47:23.824Z,1004.78
2019-04-19T03:48:25.870Z,1004.75
2019-04-19T03:49:30.277Z,1004.77
2019-04-19T03:50:24.109Z,1004.77
2019-04-19T03:51:20.924Z,1004.74
2019-04-19T03:52:21.830Z,1004.81
2019-04-19T03:53:25.884Z,1004.79
2019-04-19T03:54:18.630Z,1004.79
2019-04-19T03:55:19.144Z,1004.77
2019-04-19T03:56:28.805Z,1004.81
2019-04-19T03:57:23.069Z,1004.80
2019-04-19T03:58:08.272Z,1004.79
2019-04-19T03:59:02.842Z,1004.78
2019-04-19T04:00:02.720Z,1004.78
2019-04-19T04:01:02.532Z,1004.79
2019-04-19T04:02:04.107Z,1004.79
2019-04-19T04:03:10.404Z,1004.78
2019-04-19T04:04:09.161Z,1004.81
2019-04-19T04:05:07.509Z,1004.78
2019-04-19T04:06:03.871Z,1004.83
2019-04-19T04:07:09.838Z,1004.83
2019-04-19T04:08:10.178Z,1004.82
2019-04-19T04:09:06.239Z,1004.83
2019-04-19T04:10:04.638Z,1004.86
2019-04-19T04:11:09.591Z,1004.83
2019-04-19T04:13:17.718Z,1004.85
2019-04-19T04:14:16.982Z,1004.86
2019-04-19T04:15:14.221Z,1004.90
2019-04-19T04:16:17.545Z,1004.91
2019-04-19T04:17:03.965Z,1004.92
2019-04-19T04:18:04.790Z,1004.90
2019-04-19T04:19:04.027Z,1004.93
2019-04-19T04:20:05.284Z,1004.94
2019-04-19T04:21:05.350Z,1004.99
2019-04-19T04:22:07.658Z,1004.94
2019-04-19T04:23:11.825Z,1005.00
2019-04-19T04:24:14.400Z,1005.01
2019-04-19T04:25:14.430Z,1005.00
2019-04-19T04:26:10.142Z,1005.01
2019-04-19T04:27:12.305Z,1005.02
2019-04-19T04:28:20.515Z,1005.02
2019-04-19T04:29:12.139Z,1005.04
2019-04-19T04:30:15.310Z,1005.06
2019-04-19T04:31:16.693Z,1005.06
2019-04-19T04:32:12.747Z,1005.08
2019-04-19T04:33:21.584Z,1005.07
2019-04-19T04:34:24.121Z,1005.10
2019-04-19T04:35:23.071Z,1005.09
2019-04-19T04:36:28.442Z,1005.09
2019-04-19T04:37:23.232Z,1005.15
2019-04-19T04:38:14.566Z,1005.14
2019-04-19T04:39:07.135Z,1005.17
2019-04-19T04:40:06.311Z,1005.16
2019-04-19T04:41:13.479Z,1005.16
2019-04-19T04:42:15.686Z,1005.14
2019-04-19T04:43:23.141Z,1005.18
2019-04-19T04:44:22.828Z,1005.13
2019-04-19T04:45:28.765Z,1005.15
2019-04-19T04:46:29.137Z,1005.17
2019-04-19T04:47:25.662Z,1005.18
2019-04-19T04:48:29.381Z,1005.20
2019-04-19T04:49:34.424Z,1005.25
2019-04-19T04:50:34.514Z,1005.23
2019-04-19T04:51:26.174Z,1005.23
2019-04-19T04:52:16.983Z,1005.22
2019-04-19T04:53:07.023Z,1005.22
2019-04-19T04:54:08.126Z,1005.25
2019-04-19T04:55:07.275Z,1005.23
2019-04-19T04:56:09.270Z,1005.25
2019-04-19T04:57:13.911Z,1005.24
2019-04-19T04:58:16.254Z,1005.22
2019-04-19T04:59:15.288Z,1005.28
2019-04-19T05:00:08.044Z,1005.33
2019-04-19T05:01:13.482Z,1005.30
2019-04-19T05:02:21.178Z,1005.33
2019-04-19T05:03:24.239Z,1005.34
2019-04-19T05:04:26.281Z,1005.33
2019-04-19T05:05:24.796Z,1005.32
2019-04-19T05:06:26.031Z,1005.35
2019-04-19T05:07:28.378Z,1005.36
2019-04-19T05:08:24.557Z,1005.37
2019-04-19T05:09:28.411Z,1005.40
2019-04-19T05:10:27.032Z,1005.39
2019-04-19T05:11:25.593Z,1005.42
2019-04-19T05:12:36.827Z,1005.39
2019-04-19T05:13:43.344Z,1005.45
2019-04-19T05:14:28.649Z,1005.43
2019-04-19T05:15:26.595Z,1005.44
2019-04-19T05:16:32.335Z,1005.45
2019-04-19T05:18:40.249Z,1005.48
2019-04-19T05:19:25.058Z,1005.49
2019-04-19T05:20:27.814Z,1005.50
2019-04-19T05:21:31.001Z,1005.51
2019-04-19T05:22:22.353Z,1005.53
2019-04-19T05:23:27.209Z,1005.51
2019-04-19T05:24:40.069Z,1005.52
2019-04-19T05:25:35.783Z,1005.54
2019-04-19T05:26:41.123Z,1005.57
2019-04-19T05:27:32.837Z,1005.54
2019-04-19T05:28:27.746Z,1005.55
2019-04-19T05:29:19.968Z,1005.53
2019-04-19T05:30:11.273Z,1005.53
2019-04-19T05:31:20.839Z,1005.56
2019-04-19T05:32:19.701Z,1005.59
2019-04-19T05:33:21.118Z,1005.58
2019-04-19T05:34:26.156Z,1005.57
2019-04-19T05:35:23.988Z,1005.61
2019-04-19T05:36:29.318Z,1005.62
2019-04-19T05:37:23.751Z,1005.63
2019-04-19T05:38:35.310Z,1005.61
2019-04-19T05:39:32.472Z,1005.58
2019-04-19T05:40:29.000Z,1005.58
2019-04-19T05:41:27.110Z,1005.58
2019-04-19T05:42:33.106Z,1005.59
2019-04-19T05:43:50.080Z,1005.65
2019-04-19T05:45:37.942Z,1005.63
2019-04-19T05:46:37.741Z,1005.55
2019-04-19T05:47:26.232Z,1005.62
2019-04-19T05:48:23.701Z,1005.61
2019-04-19T05:49:28.899Z,1005.60
2019-04-19T05:50:30.109Z,1005.61
2019-04-19T05:51:34.283Z,1005.61
2019-04-19T05:52:31.659Z,1005.63
2019-04-19T05:53:22.313Z,1005.60
2019-04-19T05:54:15.337Z,1005.59
2019-04-19T05:55:13.446Z,1005.63
2019-04-19T05:56:13.663Z,1005.66
2019-04-19T05:57:33.160Z,1005.66
2019-04-19T05:58:21.459Z,1005.70
2019-04-19T05:59:26.598Z,1005.65
2019-04-19T06:00:25.934Z,1005.66
2019-04-19T06:01:32.863Z,1005.71
2019-04-19T06:02:25.566Z,1005.81
2019-04-19T06:03:21.445Z,1005.88
2019-04-19T06:04:32.436Z,1005.85
2019-04-19T06:05:36.692Z,1005.88
2019-04-19T06:06:37.259Z,1005.86
2019-04-19T06:07:31.761Z,1005.80
2019-04-19T06:08:22.107Z,1005.79
2019-04-19T06:09:13.831Z,1005.86
2019-04-19T06:10:14.656Z,1005.93
2019-04-19T06:11:15.283Z,1005.95
2019-04-19T06:12:20.931Z,1005.97
2019-04-19T06:13:15.901Z,1005.99
2019-04-19T06:14:43.380Z,1006.01
2019-04-19T06:15:36.823Z,1005.95
2019-04-19T06:16:30.629Z,1006.01
2019-04-19T06:17:33.357Z,1005.95
2019-04-19T06:18:28.387Z,1006.03
2019-04-19T06:19:33.350Z,1006.03
2019-04-19T06:20:30.294Z,1005.97
2019-04-19T06:21:34.041Z,1006.02
2019-04-19T06:22:37.175Z,1006.08
2019-04-19T06:23:40.260Z,1006.06
2019-04-19T06:24:36.566Z,1006.07
2019-04-19T06:25:41.838Z,1006.13
2019-04-19T06:27:46.595Z,1006.07
2019-04-19T06:28:48.474Z,1006.10
2019-04-19T06:29:43.657Z,1006.10
2019-04-19T06:30:37.183Z,1006.12
2019-04-19T06:31:48.799Z,1006.14
2019-04-19T06:32:39.290Z,1006.15
2019-04-19T06:33:34.355Z,1006.12
2019-04-19T06:34:37.701Z,1006.15
2019-04-19T06:35:26.970Z,1006.17
2019-04-19T06:36:17.944Z,1006.15
2019-04-19T06:37:21.521Z,1006.16
2019-04-19T06:38:16.582Z,1006.13
2019-04-19T06:39:16.680Z,1006.13
2019-04-19T06:40:24.272Z,1006.13
2019-04-19T06:41:21.753Z,1006.05
2019-04-19T06:42:22.848Z,1006.07
2019-04-19T06:43:30.516Z,1006.10
2019-04-19T06:44:41.656Z,1006.04
2019-04-19T06:45:30.236Z,1006.09
2019-04-19T06:46:31.809Z,1006.08
2019-04-19T06:47:26.695Z,1006.07
2019-04-19T06:48:22.015Z,1006.08
2019-04-19T06:49:22.897Z,1006.05
2019-04-19T06:50:24.431Z,1006.06
2019-04-19T06:51:28.308Z,1006.05
2019-04-19T06:52:23.904Z,1005.98
2019-04-19T06:53:18.855Z,1006.03
2019-04-19T06:54:24.776Z,1005.99
2019-04-19T06:55:24.880Z,1006.04
2019-04-19T06:56:25.676Z,1006.01
2019-04-19T06:57:25.603Z,1006.01
2019-04-19T06:58:24.287Z,1006.02
2019-04-19T06:59:35.232Z,1006.05
2019-04-19T07:00:30.540Z,1006.03
2019-04-19T07:01:30.151Z,1006.02
2019-04-19T07:02:20.034Z,1006.03
2019-04-19T07:03:19.600Z,1006.04
2019-04-19T07:04:19.158Z,1006.01
2019-04-19T07:05:34.997Z,1006.05
2019-04-19T07:06:32.099Z,1006.06
2019-04-19T07:07:37.941Z,1006.04
2019-04-19T07:09:45.033Z,1006.06
2019-04-19T07:10:51.587Z,1006.07
2019-04-19T07:12:44.134Z,1006.09
2019-04-19T07:13:32.898Z,1006.10
2019-04-19T07:14:24.959Z,1006.06
2019-04-19T07:15:51.048Z,1006.07
2019-04-19T07:16:40.914Z,1006.03
2019-04-19T07:17:34.277Z,1006.06
2019-04-19T07:18:36.064Z,1006.03
2019-04-19T07:19:38.930Z,1006.03
2019-04-19T07:20:33.708Z,1006.02
2019-04-19T07:21:37.143Z,1006.01
2019-04-19T07:22:39.128Z,1006.07
2019-04-19T07:23:42.026Z,1006.04
2019-04-19T07:24:44.344Z,1005.96
2019-04-19T07:25:46.831Z,1006.03
2019-04-19T07:26:42.559Z,1005.96
2019-04-19T07:27:34.488Z,1005.94
2019-04-19T07:28:26.399Z,1005.98
2019-04-19T07:29:21.680Z,1005.99
2019-04-19T07:30:22.543Z,1005.97
2019-04-19T07:31:21.892Z,1005.95
2019-04-19T07:32:29.014Z,1005.90
2019-04-19T07:33:31.454Z,1005.92
2019-04-19T07:34:40.686Z,1005.90
2019-04-19T07:35:53.099Z,1005.94
2019-04-19T07:36:40.198Z,1005.93
2019-04-19T07:37:41.816Z,1005.94
2019-04-19T07:38:50.675Z,1005.91
2019-04-19T07:39:49.467Z,1005.92
2019-04-19T07:40:42.909Z,1005.93
2019-04-19T07:41:37.615Z,1005.95
2019-04-19T07:42:39.379Z,1005.99
2019-04-19T07:43:40.635Z,1005.98
2019-04-19T07:44:34.126Z,1005.96
2019-04-19T07:45:30.980Z,1005.95
2019-04-19T07:46:47.191Z,1006.01
2019-04-19T07:47:33.945Z,1005.96
2019-04-19T07:48:25.814Z,1005.99
2019-04-19T07:49:23.652Z,1005.97
2019-04-19T07:50:27.799Z,1005.96
2019-04-19T07:51:30.106Z,1005.96
2019-04-19T07:52:34.404Z,1006.01
2019-04-19T07:53:32.048Z,1006.03
2019-04-19T07:54:29.878Z,1006.04
2019-04-19T07:55:24.397Z,1006.07
2019-04-19T07:56:39.172Z,1006.01
2019-04-19T08:01:10.367Z,1006.08
2019-04-19T08:02:07.139Z,1006.07
2019-04-19T08:04:58.743Z,1006.08
2019-04-19T08:05:54.979Z,1006.07
2019-04-19T08:06:53.394Z,1006.09
2019-04-19T08:08:00.872Z,1006.09
2019-04-19T08:09:58.572Z,1006.07
2019-04-19T08:12:53.811Z,1006.08
2019-04-19T08:13:58.129Z,1006.07
2019-04-19T08:18:03.450Z,1006.23
2019-04-19T08:27:37.116Z,1006.06
2019-04-19T08:28:38.792Z,1006.06
2019-04-19T08:29:38.468Z,1006.09
2019-04-19T08:30:35.982Z,1006.09
2019-04-19T08:31:27.792Z,1006.08
2019-04-19T08:32:28.142Z,1006.07
2019-04-19T08:33:27.985Z,1006.11
2019-04-19T08:34:29.587Z,1006.08
2019-04-19T08:35:31.853Z,1006.09
2019-04-19T08:36:33.941Z,1006.07
2019-04-19T08:37:35.188Z,1006.08
2019-04-19T08:38:30.869Z,1006.08
2019-04-19T08:39:44.929Z,1006.09
2019-04-19T08:40:50.611Z,1006.01
2019-04-19T08:41:46.718Z,1006.08
2019-04-19T08:42:47.734Z,1006.08
2019-04-19T08:43:46.927Z,1006.06
2019-04-19T08:44:42.002Z,1006.02
2019-04-19T08:45:30.401Z,1006.08
2019-04-19T08:46:30.158Z,1006.06
2019-04-19T08:47:35.701Z,1006.06
2019-04-19T08:48:39.141Z,1006.04
2019-04-19T08:49:35.243Z,1006.06
2019-04-19T08:50:30.825Z,1006.00
2019-04-19T08:51:33.368Z,1006.06
2019-04-19T08:52:33.653Z,1006.02
2019-04-19T08:53:43.016Z,1005.99
2019-04-19T08:54:56.316Z,1006.02
2019-04-19T08:55:52.925Z,1006.04
2019-04-19T08:56:40.976Z,1006.04
2019-04-19T08:57:32.270Z,1006.04
2019-04-19T08:58:51.266Z,1006.01
2019-04-19T09:00:04.776Z,1006.02
2019-04-19T09:01:00.402Z,1006.08
2019-04-19T09:01:50.823Z,1006.05
2019-04-19T09:02:45.299Z,1006.07
2019-04-19T09:03:54.053Z,1006.05
2019-04-19T09:04:52.346Z,1006.00
2019-04-19T09:05:54.672Z,1006.04
2019-04-19T09:07:53.838Z,1006.04
2019-04-19T09:08:48.955Z,1006.02
2019-04-19T09:10:09.866Z,1006.02
2019-04-19T09:10:52.276Z,1006.08
2019-04-19T09:11:54.014Z,1006.03
2019-04-19T09:12:57.739Z,1006.03
2019-04-19T09:13:53.488Z,1006.01
2019-04-19T09:14:52.571Z,1006.00
2019-04-19T09:15:45.958Z,1006.01
2019-04-19T09:17:00.017Z,1005.97
2019-04-19T09:18:21.397Z,1005.99
2019-04-19T09:18:55.702Z,1005.98
2019-04-19T09:20:05.844Z,1005.93
2019-04-19T09:20:52.223Z,1005.92
2019-04-19T09:21:44.885Z,1005.99
2019-04-19T09:22:46.170Z,1005.97
2019-04-19T09:23:43.883Z,1005.89
2019-04-19T09:24:44.967Z,1005.94
2019-04-19T09:25:45.474Z,1005.93
2019-04-19T09:26:51.433Z,1005.85
2019-04-19T09:27:56.327Z,1005.87
2019-04-19T09:28:54.141Z,1005.82
2019-04-19T09:29:54.869Z,1005.80
2019-04-19T09:30:53.659Z,1005.88
2019-04-19T09:31:45.287Z,1005.88
2019-04-19T09:32:35.975Z,1005.87
2019-04-19T09:33:37.669Z,1005.87
2019-04-19T09:34:35.088Z,1005.84
2019-04-19T09:35:39.889Z,1005.89
2019-04-19T09:36:41.536Z,1005.85
2019-04-19T09:37:47.834Z,1005.84
2019-04-19T09:38:50.143Z,1005.83
2019-04-19T09:39:45.445Z,1005.82
2019-04-19T09:40:41.387Z,1005.84
2019-04-19T09:41:43.658Z,1005.77
2019-04-19T09:42:46.854Z,1005.76
2019-04-19T09:43:49.401Z,1005.78
2019-04-19T09:44:43.084Z,1005.77
2019-04-19T09:45:36.187Z,1005.71
2019-04-19T09:46:36.033Z,1005.68
2019-04-19T09:47:35.946Z,1005.70
2019-04-19T09:48:53.006Z,1005.69
2019-04-19T09:49:50.886Z,1005.63
2019-04-19T09:50:54.045Z,1005.56
2019-04-19T09:51:54.030Z,1005.68
2019-04-19T09:53:58.968Z,1005.66
2019-04-19T09:54:58.772Z,1005.58
2019-04-19T09:55:56.378Z,1005.57
2019-04-19T09:56:53.667Z,1005.59
2019-04-19T09:57:58.517Z,1005.48
2019-04-19T09:58:52.317Z,1005.52
2019-04-19T09:59:40.756Z,1005.57
2019-04-19T10:00:36.745Z,1005.54
2019-04-19T10:01:42.634Z,1005.54
2019-04-19T10:02:44.317Z,1005.53
2019-04-19T10:03:43.901Z,1005.58
2019-04-19T10:04:37.871Z,1005.48
2019-04-19T10:05:37.031Z,1005.48
2019-04-19T10:06:38.505Z,1005.50
2019-04-19T10:07:37.243Z,1005.56
2019-04-19T10:08:37.758Z,1005.56
2019-04-19T10:09:38.423Z,1005.52
2019-04-19T10:10:38.786Z,1005.49
2019-04-19T10:11:38.958Z,1005.54
2019-04-19T10:12:37.894Z,1005.55
2019-04-19T10:13:37.863Z,1005.51
2019-04-19T10:14:37.960Z,1005.51
2019-04-19T10:15:38.426Z,1005.58
2019-04-19T10:16:38.156Z,1005.51
2019-04-19T10:17:38.353Z,1005.51
2019-04-19T10:18:49.154Z,1005.47
2019-04-19T10:19:38.979Z,1005.47
2019-04-19T10:20:38.636Z,1005.44
2019-04-19T10:21:40.115Z,1005.45
2019-04-19T10:22:39.098Z,1005.47
2019-04-19T10:23:38.850Z,1005.49
2019-04-19T10:24:39.110Z,1005.47
2019-04-19T10:25:46.265Z,1005.44
2019-04-19T10:26:40.350Z,1005.45
2019-04-19T10:27:39.647Z,1005.43
2019-04-19T10:28:40.046Z,1005.51
2019-04-19T10:29:43.520Z,1005.49
2019-04-19T10:30:40.662Z,1005.49
2019-04-19T10:31:39.777Z,1005.51
2019-04-19T10:32:40.335Z,1005.51
2019-04-19T10:33:48.157Z,1005.47
2019-04-19T10:34:40.704Z,1005.46
2019-04-19T10:35:41.214Z,1005.45
2019-04-19T10:36:40.603Z,1005.41
2019-04-19T10:37:40.277Z,1005.43
2019-04-19T10:38:41.023Z,1005.39
2019-04-19T10:39:41.649Z,1005.36
2019-04-19T10:40:41.722Z,1005.36
2019-04-19T10:41:40.665Z,1005.40
2019-04-19T10:42:41.187Z,1005.42
2019-04-19T10:43:41.273Z,1005.36
2019-04-19T10:44:42.208Z,1005.44
2019-04-19T10:45:41.766Z,1005.43
2019-04-19T10:46:41.163Z,1005.47
2019-04-19T10:47:41.999Z,1005.46
2019-04-19T10:48:41.385Z,1005.49
2019-04-19T10:49:49.487Z,1005.47
2019-04-19T10:50:45.852Z,1005.47
2019-04-19T10:51:41.926Z,1005.40
2019-04-19T10:52:41.768Z,1005.41
2019-04-19T10:53:42.125Z,1005.37
2019-04-19T10:54:43.209Z,1005.40
2019-04-19T10:55:42.353Z,1005.38
2019-04-19T10:56:42.157Z,1005.39
2019-04-19T10:57:43.195Z,1005.37
2019-04-19T10:58:42.834Z,1005.33
2019-04-19T10:59:42.698Z,1005.39
2019-04-19T11:00:43.087Z,1005.35
2019-04-19T11:01:43.243Z,1005.36
2019-04-19T11:02:44.131Z,1005.34
2019-04-19T11:03:42.896Z,1005.35
2019-04-19T11:04:42.996Z,1005.34
2019-04-19T11:05:43.096Z,1005.31
2019-04-19T11:06:43.196Z,1005.30
2019-04-19T11:07:43.650Z,1005.33
2019-04-19T11:08:44.508Z,1005.28
2019-04-19T11:09:43.769Z,1005.28
2019-04-19T11:10:43.581Z,1005.25
2019-04-19T11:11:43.682Z,1005.28
2019-04-19T11:12:44.863Z,1005.26
2019-04-19T11:13:43.880Z,1005.26
2019-04-19T11:14:44.151Z,1005.27
2019-04-19T11:15:44.590Z,1005.28
2019-04-19T11:16:44.171Z,1005.27
2019-04-19T11:17:45.431Z,1005.26
2019-04-19T11:18:45.671Z,1005.29
2019-04-19T11:19:58.833Z,1005.28
2019-04-19T11:20:48.709Z,1005.29
2019-04-19T11:21:45.573Z,1005.24
2019-04-19T11:22:46.002Z,1005.28
2019-04-19T11:23:44.876Z,1005.24
2019-04-19T11:24:45.756Z,1005.28
2019-04-19T11:25:47.415Z,1005.31
2019-04-19T11:26:45.363Z,1005.27
2019-04-19T11:27:48.419Z,1005.27
2019-04-19T11:28:45.390Z,1005.24
2019-04-19T11:29:46.761Z,1005.21
2019-04-19T11:30:46.753Z,1005.24
2019-04-19T11:31:45.757Z,1005.25
2019-04-19T11:32:46.148Z,1005.27
2019-04-19T11:33:46.854Z,1005.29
2019-04-19T11:34:47.124Z,1005.25
2019-04-19T11:35:46.156Z,1005.14
2019-04-19T11:36:47.462Z,1005.23
2019-04-19T11:37:47.385Z,1005.22
2019-04-19T11:38:47.511Z,1005.24
2019-04-19T11:39:46.596Z,1005.26
2019-04-19T11:40:46.963Z,1005.16
2019-04-19T11:41:47.507Z,1005.18
2019-04-19T11:42:46.818Z,1005.14
2019-04-19T11:43:47.592Z,1005.15
2019-04-19T11:44:47.723Z,1005.11
2019-04-19T11:45:48.098Z,1005.13
2019-04-19T11:46:47.796Z,1005.17
2019-04-19T11:47:47.462Z,1005.16
2019-04-19T11:48:47.828Z,1005.18
2019-04-19T11:49:49.241Z,1005.14
2019-04-19T11:50:48.070Z,1005.16
2019-04-19T11:51:48.439Z,1005.16
2019-04-19T11:52:48.210Z,1005.21
2019-04-19T11:53:48.641Z,1005.13
2019-04-19T11:54:48.359Z,1005.08
2019-04-19T11:55:48.691Z,1005.19
2019-04-19T11:56:54.081Z,1005.08
2019-04-19T11:57:48.805Z,1005.11
2019-04-19T11:58:48.628Z,1005.02
2019-04-19T11:59:51.893Z,1005.14
2019-04-19T12:00:50.256Z,1005.10
2019-04-19T12:01:50.000Z,1005.03
2019-04-19T12:02:49.747Z,1005.03
2019-04-19T12:03:50.019Z,1005.13
2019-04-19T12:04:50.255Z,1005.07
2019-04-19T12:05:50.308Z,1005.11
2019-04-19T12:06:50.232Z,1005.02
2019-04-19T12:07:50.458Z,1005.08
2019-04-19T12:08:50.101Z,1005.01
2019-04-19T12:09:50.306Z,1004.99
2019-04-19T12:10:50.484Z,1005.09
2019-04-19T12:11:50.574Z,1005.04
2019-04-19T12:12:50.921Z,1005.00
2019-04-19T12:13:50.089Z,1004.98
2019-04-19T12:14:50.173Z,1005.03
2019-04-19T12:15:50.749Z,1005.11
2019-04-19T12:16:50.921Z,1005.10
2019-04-19T12:17:50.769Z,1005.02
2019-04-19T12:18:51.765Z,1004.99
2019-04-19T12:19:57.228Z,1004.98
2019-04-19T12:20:51.183Z,1004.93
2019-04-19T12:21:52.756Z,1004.97
2019-04-19T12:22:51.570Z,1004.97
2019-04-19T12:23:50.986Z,1004.95
2019-04-19T12:24:54.854Z,1004.99
2019-04-19T12:25:51.420Z,1004.98
2019-04-19T12:26:51.547Z,1005.03
2019-04-19T12:27:51.863Z,1005.01
2019-04-19T12:28:51.502Z,1005.02
2019-04-19T12:29:54.947Z,1004.99
2019-04-19T12:30:55.079Z,1005.00
2019-04-19T12:31:54.303Z,1005.04
2019-04-19T12:32:53.040Z,1005.05
2019-04-19T12:33:53.310Z,1005.04
2019-04-19T12:34:52.947Z,1005.00
2019-04-19T12:35:53.035Z,1005.00
2019-04-19T12:36:53.100Z,1004.96
2019-04-19T12:37:53.614Z,1005.08
2019-04-19T12:38:53.654Z,1004.93
2019-04-19T12:39:52.870Z,1004.92
2019-04-19T12:40:54.038Z,1005.00